Wetterstation Vordersexau
Wetterdaten: Woche 19.08.13 - 25.08.13 (KW34)
Datum Zeit Temp. A. Feuchte A. Luftdruck Regen Wind Richtung Taupunkt Windchill Windben
19.08.2013 00:00 17,9 C 76 % 1013,8 hPa 0,0 l/m 0,0 km/h S-SO 13,6 C 17,9 C 0,0 km/h
19.08.2013 01:00 17,5 C 78 % 1013,9 hPa 0,0 l/m 0,0 km/h S-SO 13,6 C 17,5 C 0,0 km/h
19.08.2013 02:00 17,3 C 78 % 1013,6 hPa 0,0 l/m 0,0 km/h O 13,4 C 17,3 C 0,0 km/h
19.08.2013 03:00 16,3 C 79 % 1013,1 hPa 0,0 l/m 0,0 km/h O-SO 12,6 C 16,3 C 0,0 km/h
19.08.2013 04:00 15,8 C 79 % 1012,8 hPa 0,0 l/m 0,0 km/h O-NO 12,2 C 15,8 C 0,0 km/h
19.08.2013 05:00 15,8 C 80 % 1012,4 hPa 0,0 l/m 0,0 km/h O-SO 12,4 C 15,8 C 0,0 km/h
19.08.2013 06:00 15,9 C 80 % 1012,8 hPa 0,0 l/m 0,0 km/h S-SO 12,5 C 15,9 C 0,0 km/h
19.08.2013 07:00 16,2 C 81 % 1013,0 hPa 0,0 l/m 0,0 km/h S-SO 12,9 C 16,2 C 0,0 km/h
19.08.2013 08:00 17,0 C 81 % 1013,4 hPa 0,0 l/m 0,0 km/h S-SO 13,7 C 17,0 C 0,0 km/h
19.08.2013 09:00 18,6 C 80 % 1013,6 hPa 0,0 l/m 0,0 km/h W 15,1 C 18,6 C 0,0 km/h
19.08.2013 10:00 23,6 C 64 % 1013,8 hPa 0,0 l/m 19,4 km/h W 16,4 C 20,9 C 10,8 km/h
19.08.2013 11:00 25,3 C 57 % 1014,1 hPa 0,0 l/m 8,4 km/h NO 16,2 C 24,8 C 4,7 km/h
19.08.2013 12:00 22,1 C 65 % 1014,9 hPa 0,0 l/m 4,5 km/h NO 15,2 C 22,1 C 2,5 km/h
19.08.2013 13:00 17,9 C 80 % 1016,2 hPa 5,2 l/m 0,0 km/h S 14,4 C 17,9 C 0,0 km/h
19.08.2013 14:00 19,3 C 80 % 1016,4 hPa 1,0 l/m 1,3 km/h S-SW 15,8 C 19,3 C 0,7 km/h
19.08.2013 15:00 25,5 C 63 % 1016,3 hPa 0,0 l/m 6,5 km/h NO 17,9 C 25,5 C 3,6 km/h
19.08.2013 16:00 24,9 C 57 % 1016,0 hPa 0,0 l/m 0,0 km/h S 15,8 C 24,9 C 0,0 km/h
19.08.2013 17:00 15,1 C 80 % 1018,3 hPa 23,3 l/m 1,9 km/h S-SO 11,7 C 15,1 C 1,1 km/h
19.08.2013 18:00 24,7 C 64 % 1018,8 hPa 0,0 l/m 14,9 km/h S 17,4 C 23,0 C 8,3 km/h
19.08.2013 19:00 24,2 C 62 % 1018,8 hPa 0,0 l/m 0,0 km/h NO 16,4 C 24,2 C 0,0 km/h
19.08.2013 20:00 16,5 C 78 % 1019,4 hPa 0,0 l/m 0,0 km/h S-SO 12,6 C 16,5 C 0,0 km/h
19.08.2013 21:00 15,4 C 80 % 1020,9 hPa 0,0 l/m 0,0 km/h S 12,0 C 15,4 C 0,0 km/h
19.08.2013 22:00 15,2 C 78 % 1021,4 hPa 0,0 l/m 5,2 km/h SO 11,4 C 15,2 C 2,9 km/h
19.08.2013 23:00 14,7 C 76 % 1022,0 hPa 0,0 l/m 0,0 km/h S 10,5 C 14,7 C 0,0 km/h
20.08.2013 00:00 13,6 C 76 % 1022,5 hPa 1,0 l/m 0,0 km/h S-SO 9,4 C 13,6 C 0,0 km/h
20.08.2013 01:00 12,7 C 75 % 1022,9 hPa 0,0 l/m 0,0 km/h O-SO 8,4 C 12,7 C 0,0 km/h
20.08.2013 02:00 11,8 C 75 % 1023,1 hPa 0,0 l/m 0,0 km/h SO 7,5 C 11,8 C 0,0 km/h
20.08.2013 03:00 11,3 C 73 % 1023,2 hPa 0,0 l/m 0,0 km/h S-SO 6,6 C 11,3 C 0,0 km/h
20.08.2013 04:00 10,6 C 73 % 1023,6 hPa 0,0 l/m 0,0 km/h S 6,0 C 10,6 C 0,0 km/h
20.08.2013 05:00 10,1 C 72 % 1023,6 hPa 0,0 l/m 0,0 km/h S-SO 5,3 C 10,1 C 0,0 km/h
20.08.2013 06:00 9,4 C 72 % 1023,8 hPa 0,0 l/m 0,0 km/h O 4,6 C 9,4 C 0,0 km/h
20.08.2013 07:00 9,9 C 69 % 1024,3 hPa 0,0 l/m 0,0 km/h S-SO 4,5 C 9,9 C 0,0 km/h
20.08.2013 08:00 12,4 C 61 % 1024,4 hPa 0,0 l/m 1,3 km/h S-SO 5,1 C 12,4 C 0,7 km/h
20.08.2013 09:00 17,8 C 81 % 1025,1 hPa 0,0 l/m 0,0 km/h S 14,5 C 17,8 C 0,0 km/h
20.08.2013 10:00 20,6 C 71 % 1025,2 hPa 0,0 l/m 0,0 km/h O-NO 15,2 C 20,6 C 0,0 km/h
20.08.2013 11:00 25,9 C 55 % 1025,2 hPa 0,0 l/m 0,0 km/h O-SO 16,2 C 25,9 C 0,0 km/h
20.08.2013 12:00 26,3 C 41 % 1025,1 hPa 0,0 l/m 1,3 km/h N-NO 12,0 C 26,3 C 0,7 km/h
20.08.2013 13:00 26,5 C 41 % 1025,1 hPa 0,0 l/m 3,2 km/h O-NO 12,2 C 26,5 C 1,8 km/h
20.08.2013 14:00 25,6 C 40 % 1024,8 hPa 0,0 l/m 0,0 km/h NW 11,0 C 25,6 C 0,0 km/h
20.08.2013 15:00 29,2 C 37 % 1024,3 hPa 0,0 l/m 2,6 km/h NO 13,0 C 29,2 C 1,4 km/h
20.08.2013 16:00 32,5 C 29 % 1024,1 hPa 0,0 l/m 0,0 km/h O-NO 12,1 C 32,5 C 0,0 km/h
20.08.2013 17:00 32,6 C 31 % 1023,7 hPa 0,0 l/m 2,6 km/h O-NO 13,2 C 32,6 C 1,4 km/h
20.08.2013 18:00 29,9 C 29 % 1023,5 hPa 0,0 l/m 4,5 km/h O-SO 9,9 C 29,9 C 2,5 km/h
20.08.2013 19:00 27,2 C 34 % 1023,7 hPa 0,0 l/m 0,0 km/h O-NO 10,0 C 27,2 C 0,0 km/h
20.08.2013 20:00 18,4 C 51 % 1023,7 hPa 0,0 l/m 0,0 km/h SO 8,1 C 18,4 C 0,0 km/h
20.08.2013 21:00 16,1 C 63 % 1023,9 hPa 0,0 l/m 0,0 km/h W 9,1 C 16,1 C 0,0 km/h
20.08.2013 22:00 12,9 C 71 % 1024,1 hPa 0,0 l/m 0,0 km/h W 7,8 C 12,9 C 0,0 km/h
20.08.2013 23:00 10,9 C 77 % 1024,2 hPa 0,0 l/m 0,0 km/h W 7,0 C 10,9 C 0,0 km/h
21.08.2013 00:00 10,1 C 80 % 1023,8 hPa 0,0 l/m 0,0 km/h W-SW 6,8 C 10,1 C 0,0 km/h
21.08.2013 01:00 9,4 C 81 % 1023,3 hPa 0,0 l/m 0,0 km/h S-SO 6,3 C 9,4 C 0,0 km/h
21.08.2013 02:00 10,3 C 82 % 1023,2 hPa 0,0 l/m 0,0 km/h S 7,4 C 10,3 C 0,0 km/h
21.08.2013 03:00 9,9 C 82 % 1022,9 hPa 0,0 l/m 0,0 km/h SW 7,0 C 9,9 C 0,0 km/h
21.08.2013 04:00 10,4 C 81 % 1022,5 hPa 0,0 l/m 0,0 km/h S-SO 7,3 C 10,4 C 0,0 km/h
21.08.2013 05:00 8,8 C 82 % 1022,1 hPa 0,0 l/m 0,0 km/h SO 5,9 C 8,8 C 0,0 km/h
21.08.2013 06:00 7,5 C 82 % 1021,9 hPa 0,0 l/m 0,0 km/h S-SO 4,6 C 7,5 C 0,0 km/h
21.08.2013 07:00 7,8 C 80 % 1022,2 hPa 0,0 l/m 0,0 km/h NW 4,6 C 7,8 C 0,0 km/h
21.08.2013 08:00 11,1 C 73 % 1022,4 hPa 0,0 l/m 0,0 km/h NW 6,4 C 11,1 C 0,0 km/h
21.08.2013 09:00 20,6 C 65 % 1022,0 hPa 0,0 l/m 3,2 km/h NW 13,8 C 20,6 C 1,8 km/h
21.08.2013 10:00 24,1 C 56 % 1021,8 hPa 0,0 l/m 5,2 km/h NW 14,8 C 24,1 C 2,9 km/h
21.08.2013 11:00 25,9 C 51 % 1021,4 hPa 0,0 l/m 14,9 km/h O-NO 15,0 C 24,4 C 8,3 km/h
21.08.2013 12:00 27,4 C 44 % 1021,0 hPa 0,0 l/m 0,0 km/h SW 14,0 C 27,4 C 0,0 km/h
21.08.2013 13:00 27,6 C 42 % 1020,5 hPa 0,0 l/m 0,0 km/h S 13,5 C 27,6 C 0,0 km/h
21.08.2013 14:00 28,8 C 38 % 1020,0 hPa 0,0 l/m 2,6 km/h O-NO 13,0 C 28,8 C 1,4 km/h
21.08.2013 15:00 31,9 C 31 % 1019,3 hPa 0,0 l/m 0,0 km/h O-NO 12,6 C 31,9 C 0,0 km/h
21.08.2013 16:00 35,0 C 27 % 1018,9 hPa 0,0 l/m 5,2 km/h NO 13,2 C 35,0 C 2,9 km/h
21.08.2013 17:00 33,8 C 27 % 1018,6 hPa 0,0 l/m 7,8 km/h NO 12,2 C 33,8 C 4,3 km/h
21.08.2013 18:00 35,0 C 27 % 1018,2 hPa 0,0 l/m 0,0 km/h O-NO 13,2 C 35,0 C 0,0 km/h
21.08.2013 19:00 29,5 C 33 % 1018,0 hPa 0,0 l/m 1,3 km/h O-NO 11,5 C 29,5 C 0,7 km/h
21.08.2013 20:00 21,4 C 48 % 1018,2 hPa 0,0 l/m 0,0 km/h SO 9,9 C 21,4 C 0,0 km/h
21.08.2013 21:00 19,3 C 54 % 1018,6 hPa 0,0 l/m 0,0 km/h S-SO 9,8 C 19,3 C 0,0 km/h
21.08.2013 22:00 14,9 C 70 % 1018,4 hPa 0,0 l/m 0,0 km/h S-SO 9,5 C 14,9 C 0,0 km/h
21.08.2013 23:00 12,6 C 75 % 1018,4 hPa 0,0 l/m 0,0 km/h S-SO 8,3 C 12,6 C 0,0 km/h
22.08.2013 00:00 11,9 C 80 % 1018,1 hPa 0,0 l/m 0,0 km/h O-NO 8,6 C 11,9 C 0,0 km/h
22.08.2013 01:00 11,8 C 81 % 1018,0 hPa 0,0 l/m 0,0 km/h O-SO 8,6 C 11,8 C 0,0 km/h
22.08.2013 02:00 10,9 C 81 % 1017,8 hPa 0,0 l/m 0,0 km/h O-NO 7,8 C 10,9 C 0,0 km/h
22.08.2013 03:00 10,6 C 81 % 1017,7 hPa 0,0 l/m 0,0 km/h SO 7,5 C 10,6 C 0,0 km/h
22.08.2013 04:00 9,3 C 82 % 1017,5 hPa 0,0 l/m 0,0 km/h NO 6,4 C 9,3 C 0,0 km/h
22.08.2013 05:00 9,5 C 81 % 1017,2 hPa 0,0 l/m 0,0 km/h O 6,4 C 9,5 C 0,0 km/h
22.08.2013 06:00 9,6 C 80 % 1017,1 hPa 0,0 l/m 0,0 km/h O-NO 6,3 C 9,6 C 0,0 km/h
22.08.2013 07:00 9,8 C 79 % 1017,3 hPa 0,0 l/m 0,0 km/h N 6,3 C 9,8 C 0,0 km/h
22.08.2013 08:00 12,6 C 76 % 1017,2 hPa 0,0 l/m 0,0 km/h W-NW 8,5 C 12,6 C 0,0 km/h
22.08.2013 09:00 21,2 C 65 % 1017,2 hPa 0,0 l/m 0,0 km/h N 14,4 C 21,2 C 0,0 km/h
22.08.2013 10:00 23,9 C 54 % 1017,0 hPa 0,0 l/m 1,3 km/h W 14,0 C 23,9 C 0,7 km/h
22.08.2013 11:00 25,6 C 52 % 1016,6 hPa 0,0 l/m 0,6 km/h NO 15,0 C 25,6 C 0,4 km/h
22.08.2013 12:00 27,3 C 47 % 1016,0 hPa 0,0 l/m 0,0 km/h W 15,0 C 27,3 C 0,0 km/h
22.08.2013 13:00 28,1 C 44 % 1015,8 hPa 0,0 l/m 0,0 km/h N 14,7 C 28,1 C 0,0 km/h
22.08.2013 14:00 28,6 C 43 % 1015,3 hPa 0,0 l/m 0,0 km/h N-NW 14,8 C 28,6 C 0,0 km/h
22.08.2013 15:00 29,4 C 39 % 1014,7 hPa 0,0 l/m 1,3 km/h N 14,0 C 29,4 C 0,7 km/h
22.08.2013 16:00 30,4 C 38 % 1014,6 hPa 0,0 l/m 4,5 km/h NO 14,5 C 30,4 C 2,5 km/h
22.08.2013 17:00 33,9 C 32 % 1014,2 hPa 0,0 l/m 0,0 km/h NO 14,8 C 33,9 C 0,0 km/h
22.08.2013 18:00 33,8 C 31 % 1014,0 hPa 0,0 l/m 1,9 km/h NO 14,3 C 33,8 C 1,1 km/h
22.08.2013 19:00 26,1 C 42 % 1013,7 hPa 0,0 l/m 0,0 km/h S 12,2 C 26,1 C 0,0 km/h
22.08.2013 20:00 20,3 C 58 % 1014,1 hPa 0,0 l/m 0,0 km/h NO 11,8 C 20,3 C 0,0 km/h
22.08.2013 21:00 16,9 C 72 % 1014,5 hPa 0,0 l/m 0,0 km/h S-SO 11,8 C 16,9 C 0,0 km/h
22.08.2013 22:00 14,8 C 77 % 1014,4 hPa 0,0 l/m 0,0 km/h S-SO 10,8 C 14,8 C 0,0 km/h
22.08.2013 23:00 13,6 C 80 % 1014,6 hPa 0,0 l/m 0,0 km/h S-SO 10,2 C 13,6 C 0,0 km/h
23.08.2013 00:00 12,9 C 81 % 1014,5 hPa 0,0 l/m 0,0 km/h S-SO 9,7 C 12,9 C 0,0 km/h
23.08.2013 01:00 13,9 C 81 % 1014,4 hPa 0,0 l/m 0,0 km/h S-SO 10,7 C 13,9 C 0,0 km/h
23.08.2013 02:00 12,8 C 81 % 1014,4 hPa 0,0 l/m 0,0 km/h S-SO 9,6 C 12,8 C 0,0 km/h
23.08.2013 03:00 12,1 C 81 % 1014,4 hPa 0,0 l/m 0,0 km/h O-SO 8,9 C 12,1 C 0,0 km/h
23.08.2013 04:00 12,1 C 81 % 1014,0 hPa 0,0 l/m 0,0 km/h SO 8,9 C 12,1 C 0,0 km/h
23.08.2013 05:00 11,5 C 82 % 1013,9 hPa 0,0 l/m 0,0 km/h O-SO 8,5 C 11,5 C 0,0 km/h
23.08.2013 06:00 11,4 C 80 % 1014,0 hPa 0,0 l/m 0,0 km/h O-SO 8,1 C 11,4 C 0,0 km/h
23.08.2013 07:00 12,0 C 80 % 1014,1 hPa 0,0 l/m 0,0 km/h O-NO 8,7 C 12,0 C 0,0 km/h
23.08.2013 08:00 15,1 C 81 % 1013,7 hPa 0,0 l/m 0,0 km/h N 11,9 C 15,1 C 0,0 km/h
23.08.2013 09:00 17,3 C 76 % 1014,0 hPa 0,0 l/m 0,0 km/h NW 13,0 C 17,3 C 0,0 km/h
23.08.2013 10:00 22,1 C 67 % 1014,3 hPa 0,0 l/m 3,9 km/h NW 15,7 C 22,1 C 2,2 km/h
23.08.2013 11:00 26,3 C 49 % 1014,1 hPa 0,0 l/m 0,0 km/h W-NW 14,7 C 26,3 C 0,0 km/h
23.08.2013 12:00 28,0 C 47 % 1013,7 hPa 0,0 l/m 9,7 km/h NW 15,6 C 27,5 C 5,4 km/h
23.08.2013 13:00 29,4 C 46 % 1013,2 hPa 0,0 l/m 11,7 km/h S 16,5 C 28,9 C 6,5 km/h
23.08.2013 14:00 30,9 C 40 % 1013,0 hPa 0,0 l/m 0,0 km/h NW 15,7 C 30,9 C 0,0 km/h
23.08.2013 15:00 28,9 C 45 % 1012,5 hPa 0,0 l/m 4,5 km/h O-NO 15,8 C 28,9 C 2,5 km/h
23.08.2013 16:00 36,6 C 33 % 1012,0 hPa 0,0 l/m 4,5 km/h NW 17,7 C 36,6 C 2,5 km/h
23.08.2013 17:00 37,1 C 31 % 1011,8 hPa 0,0 l/m 3,2 km/h N 17,1 C 37,1 C 1,8 km/h
23.08.2013 18:00 31,6 C 40 % 1011,4 hPa 0,0 l/m 0,0 km/h NO 16,3 C 31,6 C 0,0 km/h
23.08.2013 19:00 25,8 C 52 % 1011,3 hPa 0,0 l/m 0,0 km/h S-SO 15,2 C 25,8 C 0,0 km/h
23.08.2013 20:00 21,4 C 67 % 1011,7 hPa 0,0 l/m 0,0 km/h S-SO 15,0 C 21,4 C 0,0 km/h
23.08.2013 21:00 18,2 C 76 % 1011,9 hPa 0,0 l/m 0,0 km/h S-SO 13,9 C 18,2 C 0,0 km/h
23.08.2013 22:00 17,6 C 79 % 1012,1 hPa 0,0 l/m 0,0 km/h O-SO 13,9 C 17,6 C 0,0 km/h
23.08.2013 23:00 17,3 C 78 % 1012,0 hPa 0,0 l/m 0,0 km/h S 13,4 C 17,3 C 0,0 km/h
24.08.2013 00:00 16,4 C 79 % 1012,1 hPa 0,0 l/m 3,9 km/h SO 12,7 C 16,4 C 2,2 km/h
24.08.2013 01:00 15,3 C 80 % 1011,9 hPa 0,0 l/m 0,0 km/h O-NO 11,9 C 15,3 C 0,0 km/h
24.08.2013 02:00 15,0 C 81 % 1011,9 hPa 0,0 l/m 0,0 km/h S-SO 11,8 C 15,0 C 0,0 km/h
24.08.2013 03:00 14,3 C 81 % 1011,5 hPa 0,0 l/m 0,0 km/h S-SO 11,1 C 14,3 C 0,0 km/h
24.08.2013 04:00 13,5 C 81 % 1011,4 hPa 0,0 l/m 0,0 km/h S-SO 10,3 C 13,5 C 0,0 km/h
24.08.2013 05:00 13,9 C 80 % 1011,0 hPa 0,0 l/m 0,0 km/h O-NO 10,5 C 13,9 C 0,0 km/h
24.08.2013 06:00 14,1 C 79 % 1010,8 hPa 0,0 l/m 0,0 km/h S 10,5 C 14,1 C 0,0 km/h
24.08.2013 07:00 14,5 C 80 % 1010,5 hPa 0,0 l/m 5,2 km/h O 11,1 C 14,5 C 2,9 km/h
24.08.2013 08:00 17,1 C 81 % 1010,2 hPa 0,0 l/m 0,0 km/h SO 13,8 C 17,1 C 0,0 km/h
24.08.2013 09:00 22,7 C 69 % 1009,9 hPa 0,0 l/m 0,0 km/h NO 16,7 C 22,7 C 0,0 km/h
24.08.2013 10:00 25,1 C 61 % 1009,3 hPa 0,0 l/m 0,0 km/h NW 17,0 C 25,1 C 0,0 km/h
24.08.2013 11:00 21,8 C 66 % 1010,5 hPa 0,0 l/m 16,8 km/h NO 15,2 C 19,1 C 9,4 km/h
24.08.2013 12:00 18,1 C 79 % 1011,8 hPa 0,5 l/m 0,0 km/h N 14,4 C 18,1 C 0,0 km/h
24.08.2013 13:00 17,2 C 80 % 1012,1 hPa 4,1 l/m 0,0 km/h O 13,7 C 17,2 C 0,0 km/h
24.08.2013 14:00 17,1 C 77 % 1010,9 hPa 3,6 l/m 0,0 km/h NO 13,0 C 17,1 C 0,0 km/h
24.08.2013 15:00 21,9 C 76 % 1011,3 hPa 0,5 l/m 1,9 km/h W-SW 17,5 C 21,9 C 1,1 km/h
24.08.2013 16:00 29,8 C 54 % 1010,9 hPa 0,0 l/m 11,7 km/h W-NW 19,5 C 29,3 C 6,5 km/h
24.08.2013 17:00 23,6 C 67 % 1009,9 hPa 0,0 l/m 0,0 km/h W-NW 17,1 C 23,6 C 0,0 km/h
24.08.2013 18:00 23,1 C 65 % 1009,5 hPa 0,0 l/m 3,2 km/h W-NW 16,2 C 23,1 C 1,8 km/h
24.08.2013 19:00 20,9 C 71 % 1009,4 hPa 0,0 l/m 7,8 km/h W 15,4 C 20,4 C 4,3 km/h
24.08.2013 20:00 19,2 C 75 % 1009,3 hPa 0,0 l/m 0,0 km/h O-NO 14,7 C 19,2 C 0,0 km/h
24.08.2013 21:00 17,2 C 80 % 1009,6 hPa 0,0 l/m 0,0 km/h O-NO 13,7 C 17,2 C 0,0 km/h
24.08.2013 22:00 17,3 C 80 % 1010,0 hPa 0,0 l/m 8,4 km/h O-NO 13,8 C 16,3 C 4,7 km/h
24.08.2013 23:00 15,4 C 80 % 1010,0 hPa 1,6 l/m 0,0 km/h O-SO 12,0 C 15,4 C 0,0 km/h
25.08.2013 00:00 15,2 C 78 % 1009,6 hPa 0,0 l/m 0,0 km/h O-SO 11,4 C 15,2 C 0,0 km/h
25.08.2013 01:00 14,3 C 77 % 1009,8 hPa 0,0 l/m 0,0 km/h W 10,3 C 14,3 C 0,0 km/h
25.08.2013 02:00 14,4 C 73 % 1010,1 hPa 0,0 l/m 18,8 km/h NO 9,6 C 9,3 C 10,4 km/h
25.08.2013 03:00 14,4 C 77 % 1010,1 hPa 0,0 l/m 0,0 km/h O-NO 10,4 C 14,4 C 0,0 km/h
25.08.2013 04:00 14,3 C 76 % 1010,0 hPa 0,0 l/m 0,0 km/h NO 10,1 C 14,3 C 0,0 km/h
25.08.2013 05:00 13,9 C 76 % 1010,1 hPa 2,1 l/m 0,0 km/h S-SO 9,7 C 13,9 C 0,0 km/h
25.08.2013 06:00 13,4 C 73 % 1009,7 hPa 4,1 l/m 0,0 km/h SO 8,7 C 13,4 C 0,0 km/h
25.08.2013 07:00 13,6 C 70 % 1009,8 hPa 0,0 l/m 0,0 km/h SO 8,2 C 13,6 C 0,0 km/h
25.08.2013 08:00 13,9 C 68 % 1010,1 hPa 0,0 l/m 0,0 km/h S-SO 8,1 C 13,9 C 0,0 km/h
25.08.2013 09:00 15,4 C 64 % 1010,2 hPa 0,5 l/m 0,0 km/h NW 8,6 C 15,4 C 0,0 km/h
25.08.2013 10:00 17,0 C 82 % 1010,1 hPa 0,0 l/m 7,1 km/h W-NW 13,9 C 16,6 C 4,0 km/h
25.08.2013 11:00 16,9 C 80 % 1010,4 hPa 0,0 l/m 0,0 km/h N-NW 13,4 C 16,9 C 0,0 km/h
25.08.2013 12:00 20,6 C 71 % 1010,0 hPa 0,0 l/m 5,2 km/h N 15,2 C 20,6 C 2,9 km/h
25.08.2013 13:00 18,7 C 70 % 1010,1 hPa 0,0 l/m 14,9 km/h S 13,1 C 15,7 C 8,3 km/h
25.08.2013 14:00 17,2 C 80 % 1010,6 hPa 0,5 l/m 1,9 km/h NO 13,7 C 17,2 C 1,1 km/h
25.08.2013 15:00 17,6 C 80 % 1010,3 hPa 0,0 l/m 0,0 km/h S 14,1 C 17,6 C 0,0 km/h
25.08.2013 16:00 19,9 C 73 % 1010,2 hPa 0,0 l/m 0,0 km/h O-NO 14,9 C 19,9 C 0,0 km/h
25.08.2013 17:00 20,5 C 67 % 1009,8 hPa 0,0 l/m 0,0 km/h O-SO 14,2 C 20,5 C 0,0 km/h
25.08.2013 18:00 20,4 C 70 % 1010,0 hPa 0,0 l/m 0,0 km/h O-SO 14,7 C 20,4 C 0,0 km/h
25.08.2013 19:00 17,9 C 75 % 1010,3 hPa 0,0 l/m 0,0 km/h N 13,4 C 17,9 C 0,0 km/h
25.08.2013 20:00 15,9 C 79 % 1010,5 hPa 0,0 l/m 0,0 km/h O-NO 12,3 C 15,9 C 0,0 km/h
25.08.2013 21:00 14,9 C 81 % 1010,7 hPa 0,0 l/m 0,0 km/h O-SO 11,7 C 14,9 C 0,0 km/h
25.08.2013 22:00 14,6 C 80 % 1010,7 hPa 0,0 l/m 0,0 km/h NO 11,2 C 14,6 C 0,0 km/h
25.08.2013 23:00 13,9 C 80 % 1010,9 hPa 0,0 l/m 0,0 km/h SO 10,5 C 13,9 C 0,0 km/h
Min-Datum _ 21.08.13 21.08.13 24.08.13 - 19.08.13 - 20.08.13 21.08.13 19.08.13
_ Min-Zeit 06:19 16:19 10:19 - 00:19 - 07:19 06:19 00:19
Minimum _ 7,5 C 27 % 1009,3 hPa - 0,0 km/h - 4,5 C 7,5 C 0,0 km/h
Max-Datum _ 23.08.13 21.08.13 20.08.13 19.08.13 19.08.13 - 24.08.13 23.08.13 19.08.13
_ Max-Zeit 17:19 02:19 10:19 17:19 10:19 - 16:19 17:19 10:19
Maximum _ 37,1 C 82 % 1025,2 hPa 23,3 l/m 19,4 km/h
W
- 19,5 C 37,1 C 10,8 km/h
W
Durchschnitt _ 19,0 C 67 % 1015,8 hPa #48,2 l/m 1,6 km/h S-SO 11,9 C 18,8 C 0,9 km/h
www.sexauwetter.de